sensor_id;sensor_type;location;lat;lon;timestamp;pressure;altitude;pressure_sealevel;temperature;humidity
42411;BME280;28056;51.112;0.984;2023-05-14T00:00:02;101390.11;;;9.63;77.18
42411;BME280;28056;51.112;0.984;2023-05-14T00:04:48;101389.13;;;10.90;70.78
42411;BME280;28056;51.112;0.984;2023-05-14T00:07:16;101386.42;;;8.98;78.09
42411;BME280;28056;51.112;0.984;2023-05-14T00:09:43;101385.02;;;10.20;73.59
42411;BME280;28056;51.112;0.984;2023-05-14T00:12:11;101379.69;;;9.75;74.70
42411;BME280;28056;51.112;0.984;2023-05-14T00:14:37;101381.06;;;9.87;77.01
42411;BME280;28056;51.112;0.984;2023-05-14T00:17:04;101381.90;;;10.96;72.58
42411;BME280;28056;51.112;0.984;2023-05-14T00:19:32;101378.69;;;10.48;73.42
42411;BME280;28056;51.112;0.984;2023-05-14T00:21:59;101374.05;;;10.06;75.56
42411;BME280;28056;51.112;0.984;2023-05-14T00:24:27;101365.96;;;8.60;80.91
42411;BME280;28056;51.112;0.984;2023-05-14T00:26:54;101364.73;;;9.02;80.77
42411;BME280;28056;51.112;0.984;2023-05-14T00:29:21;101360.55;;;10.00;76.71
42411;BME280;28056;51.112;0.984;2023-05-14T00:31:49;101357.84;;;10.78;74.77
42411;BME280;28056;51.112;0.984;2023-05-14T00:34:16;101350.73;;;11.77;70.82
42411;BME280;28056;51.112;0.984;2023-05-14T00:36:43;101353.18;;;10.85;72.06
42411;BME280;28056;51.112;0.984;2023-05-14T00:39:10;101345.07;;;11.00;71.86
42411;BME280;28056;51.112;0.984;2023-05-14T00:41:37;101350.93;;;10.84;70.84
42411;BME280;28056;51.112;0.984;2023-05-14T00:44:05;101351.14;;;10.45;71.02
42411;BME280;28056;51.112;0.984;2023-05-14T00:46:32;101343.59;;;11.02;70.55
42411;BME280;28056;51.112;0.984;2023-05-14T00:48:59;101344.10;;;10.96;70.94
42411;BME280;28056;51.112;0.984;2023-05-14T00:51:32;101343.27;;;11.20;69.56
42411;BME280;28056;51.112;0.984;2023-05-14T00:54:00;101348.62;;;10.70;70.24
42411;BME280;28056;51.112;0.984;2023-05-14T00:56:27;101347.33;;;11.10;70.42
42411;BME280;28056;51.112;0.984;2023-05-14T00:58:55;101347.58;;;11.50;68.15
42411;BME280;28056;51.112;0.984;2023-05-14T01:01:22;101349.76;;;10.83;69.57
42411;BME280;28056;51.112;0.984;2023-05-14T01:03:50;101348.94;;;11.92;66.29
42411;BME280;28056;51.112;0.984;2023-05-14T01:06:23;101344.50;;;12.16;65.74
42411;BME280;28056;51.112;0.984;2023-05-14T01:09:02;101346.49;;;12.30;65.20
42411;BME280;28056;51.112;0.984;2023-05-14T01:11:38;101345.63;;;11.64;66.96
42411;BME280;28056;51.112;0.984;2023-05-14T01:14:13;101343.78;;;11.95;66.84
42411;BME280;28056;51.112;0.984;2023-05-14T01:16:45;101345.07;;;12.29;65.70
42411;BME280;28056;51.112;0.984;2023-05-14T01:19:21;101347.72;;;12.72;64.21
42411;BME280;28056;51.112;0.984;2023-05-14T01:21:52;101348.11;;;12.75;64.44
42411;BME280;28056;51.112;0.984;2023-05-14T01:24:19;101343.60;;;13.07;63.18
42411;BME280;28056;51.112;0.984;2023-05-14T01:26:46;101339.83;;;12.82;63.38
42411;BME280;28056;51.112;0.984;2023-05-14T01:29:18;101337.16;;;12.05;65.33
42411;BME280;28056;51.112;0.984;2023-05-14T01:31:46;101333.85;;;11.06;68.34
42411;BME280;28056;51.112;0.984;2023-05-14T01:34:15;101332.22;;;11.00;70.13
42411;BME280;28056;51.112;0.984;2023-05-14T01:36:46;101332.91;;;9.12;77.11
42411;BME280;28056;51.112;0.984;2023-05-14T01:39:14;101333.13;;;11.16;70.16
42411;BME280;28056;51.112;0.984;2023-05-14T01:41:43;101331.44;;;11.04;70.73
42411;BME280;28056;51.112;0.984;2023-05-14T01:44:11;101328.88;;;11.99;67.77
42411;BME280;28056;51.112;0.984;2023-05-14T01:46:39;101325.65;;;11.32;69.31
42411;BME280;28056;51.112;0.984;2023-05-14T01:49:06;101317.12;;;11.89;67.61
42411;BME280;28056;51.112;0.984;2023-05-14T01:51:33;101314.57;;;11.69;68.15
42411;BME280;28056;51.112;0.984;2023-05-14T01:54:01;101311.41;;;11.30;68.35
42411;BME280;28056;51.112;0.984;2023-05-14T01:56:28;101313.53;;;10.53;70.93
42411;BME280;28056;51.112;0.984;2023-05-14T01:59:06;101319.62;;;10.36;73.10
42411;BME280;28056;51.112;0.984;2023-05-14T02:01:34;101319.87;;;9.49;74.56
42411;BME280;28056;51.112;0.984;2023-05-14T02:04:01;101322.55;;;10.26;73.56
42411;BME280;28056;51.112;0.984;2023-05-14T02:06:29;101311.54;;;11.25;70.43
42411;BME280;28056;51.112;0.984;2023-05-14T02:08:56;101311.31;;;10.98;70.25
42411;BME280;28056;51.112;0.984;2023-05-14T02:11:23;101315.23;;;10.66;71.91
42411;BME280;28056;51.112;0.984;2023-05-14T02:13:50;101313.78;;;10.32;73.00
42411;BME280;28056;51.112;0.984;2023-05-14T02:16:17;101310.98;;;10.35;73.25
42411;BME280;28056;51.112;0.984;2023-05-14T02:18:44;101307.39;;;10.06;72.91
42411;BME280;28056;51.112;0.984;2023-05-14T02:21:11;101302.87;;;9.42;76.08
42411;BME280;28056;51.112;0.984;2023-05-14T02:23:39;101302.37;;;9.71;74.91
42411;BME280;28056;51.112;0.984;2023-05-14T02:26:08;101299.53;;;9.13;78.12
42411;BME280;28056;51.112;0.984;2023-05-14T02:28:35;101295.10;;;10.19;73.81
42411;BME280;28056;51.112;0.984;2023-05-14T02:31:02;101291.27;;;10.27;73.95
42411;BME280;28056;51.112;0.984;2023-05-14T02:33:30;101287.39;;;9.91;73.02
42411;BME280;28056;51.112;0.984;2023-05-14T02:35:57;101281.04;;;10.68;71.62
42411;BME280;28056;51.112;0.984;2023-05-14T02:38:25;101279.66;;;10.86;70.99
42411;BME280;28056;51.112;0.984;2023-05-14T02:40:53;101275.51;;;11.35;68.64
42411;BME280;28056;51.112;0.984;2023-05-14T02:43:20;101272.47;;;11.71;68.11
42411;BME280;28056;51.112;0.984;2023-05-14T02:45:47;101272.96;;;11.86;67.42
42411;BME280;28056;51.112;0.984;2023-05-14T02:48:14;101277.31;;;11.25;69.82
42411;BME280;28056;51.112;0.984;2023-05-14T02:50:42;101281.96;;;10.42;72.15
42411;BME280;28056;51.112;0.984;2023-05-14T02:53:10;101283.29;;;10.35;72.27
42411;BME280;28056;51.112;0.984;2023-05-14T02:55:37;101281.20;;;9.27;75.41
42411;BME280;28056;51.112;0.984;2023-05-14T02:58:05;101286.20;;;9.45;76.26
42411;BME280;28056;51.112;0.984;2023-05-14T03:00:32;101285.63;;;9.04;79.13
42411;BME280;28056;51.112;0.984;2023-05-14T03:02:59;101282.37;;;9.71;75.30
42411;BME280;28056;51.112;0.984;2023-05-14T03:05:27;101285.60;;;8.58;80.51
42411;BME280;28056;51.112;0.984;2023-05-14T03:07:54;101286.67;;;9.24;78.24
42411;BME280;28056;51.112;0.984;2023-05-14T03:10:22;101283.03;;;8.04;82.37
42411;BME280;28056;51.112;0.984;2023-05-14T03:12:49;101278.85;;;7.85;83.86
42411;BME280;28056;51.112;0.984;2023-05-14T03:15:17;101273.89;;;7.90;84.44
42411;BME280;28056;51.112;0.984;2023-05-14T03:17:44;101272.46;;;8.44;83.73
42411;BME280;28056;51.112;0.984;2023-05-14T03:20:12;101271.96;;;9.87;77.91
42411;BME280;28056;51.112;0.984;2023-05-14T03:22:39;101270.67;;;9.82;76.99
42411;BME280;28056;51.112;0.984;2023-05-14T03:25:07;101269.75;;;9.73;75.74
42411;BME280;28056;51.112;0.984;2023-05-14T03:27:35;101263.72;;;9.83;74.84
42411;BME280;28056;51.112;0.984;2023-05-14T03:30:03;101267.04;;;10.14;72.43
42411;BME280;28056;51.112;0.984;2023-05-14T03:32:30;101270.26;;;9.64;72.92
42411;BME280;28056;51.112;0.984;2023-05-14T03:34:57;101270.44;;;10.18;72.17
42411;BME280;28056;51.112;0.984;2023-05-14T03:37:25;101267.23;;;10.18;71.68
42411;BME280;28056;51.112;0.984;2023-05-14T03:39:53;101264.77;;;8.82;75.55
42411;BME280;28056;51.112;0.984;2023-05-14T03:42:21;101267.55;;;8.74;75.85
42411;BME280;28056;51.112;0.984;2023-05-14T03:44:48;101269.67;;;10.05;72.67
42411;BME280;28056;51.112;0.984;2023-05-14T03:47:16;101270.08;;;9.67;72.81
42411;BME280;28056;51.112;0.984;2023-05-14T03:49:43;101270.34;;;8.93;76.56
42411;BME280;28056;51.112;0.984;2023-05-14T03:52:10;101267.31;;;8.90;76.06
42411;BME280;28056;51.112;0.984;2023-05-14T03:54:38;101268.35;;;9.22;77.65
42411;BME280;28056;51.112;0.984;2023-05-14T03:57:05;101267.46;;;8.95;77.56
42411;BME280;28056;51.112;0.984;2023-05-14T03:59:33;101261.32;;;8.16;80.74
42411;BME280;28056;51.112;0.984;2023-05-14T04:02:00;101263.95;;;9.60;75.94
42411;BME280;28056;51.112;0.984;2023-05-14T04:04:28;101261.03;;;8.96;76.41
42411;BME280;28056;51.112;0.984;2023-05-14T04:06:55;101257.10;;;8.27;81.01
42411;BME280;28056;51.112;0.984;2023-05-14T04:09:23;101255.90;;;9.63;76.74
42411;BME280;28056;51.112;0.984;2023-05-14T04:11:50;101257.92;;;9.98;74.28
42411;BME280;28056;51.112;0.984;2023-05-14T04:14:17;101259.40;;;9.44;75.59
42411;BME280;28056;51.112;0.984;2023-05-14T04:16:45;101260.93;;;8.01;79.13
42411;BME280;28056;51.112;0.984;2023-05-14T04:19:13;101264.91;;;8.64;79.44
42411;BME280;28056;51.112;0.984;2023-05-14T04:21:40;101265.20;;;7.85;81.82
42411;BME280;28056;51.112;0.984;2023-05-14T04:24:07;101268.06;;;7.35;84.70
42411;BME280;28056;51.112;0.984;2023-05-14T04:26:35;101269.02;;;7.55;85.45
42411;BME280;28056;51.112;0.984;2023-05-14T04:29:02;101273.44;;;7.76;84.82
42411;BME280;28056;51.112;0.984;2023-05-14T04:31:29;101273.53;;;8.89;82.06
42411;BME280;28056;51.112;0.984;2023-05-14T04:33:57;101274.31;;;7.40;85.39
42411;BME280;28056;51.112;0.984;2023-05-14T04:36:24;101276.49;;;7.74;86.34
42411;BME280;28056;51.112;0.984;2023-05-14T04:38:51;101274.45;;;8.61;82.34
42411;BME280;28056;51.112;0.984;2023-05-14T04:41:19;101273.38;;;7.77;84.80
42411;BME280;28056;51.112;0.984;2023-05-14T04:43:49;101275.75;;;8.93;80.83
42411;BME280;28056;51.112;0.984;2023-05-14T04:46:16;101273.47;;;8.54;80.53
42411;BME280;28056;51.112;0.984;2023-05-14T04:48:44;101272.56;;;8.20;82.63
42411;BME280;28056;51.112;0.984;2023-05-14T04:51:12;101270.50;;;8.39;82.11
42411;BME280;28056;51.112;0.984;2023-05-14T04:53:39;101270.98;;;8.19;82.08
42411;BME280;28056;51.112;0.984;2023-05-14T04:56:07;101271.39;;;8.71;81.53
42411;BME280;28056;51.112;0.984;2023-05-14T04:58:34;101272.94;;;9.36;78.50
42411;BME280;28056;51.112;0.984;2023-05-14T05:01:03;101276.51;;;9.95;77.21
42411;BME280;28056;51.112;0.984;2023-05-14T05:03:30;101276.56;;;10.37;74.83
42411;BME280;28056;51.112;0.984;2023-05-14T05:05:58;101274.68;;;10.57;73.81
42411;BME280;28056;51.112;0.984;2023-05-14T05:08:25;101273.76;;;8.87;77.13
42411;BME280;28056;51.112;0.984;2023-05-14T05:10:53;101276.98;;;10.01;74.88
42411;BME280;28056;51.112;0.984;2023-05-14T05:13:20;101279.15;;;8.61;78.59
42411;BME280;28056;51.112;0.984;2023-05-14T05:15:48;101281.98;;;10.13;74.45
42411;BME280;28056;51.112;0.984;2023-05-14T05:18:15;101281.33;;;9.91;74.70
42411;BME280;28056;51.112;0.984;2023-05-14T05:20:42;101281.00;;;8.94;77.29
42411;BME280;28056;51.112;0.984;2023-05-14T05:23:10;101281.53;;;9.25;78.14
42411;BME280;28056;51.112;0.984;2023-05-14T05:25:37;101276.57;;;7.82;81.76
42411;BME280;28056;51.112;0.984;2023-05-14T05:28:04;101274.91;;;8.61;79.94
42411;BME280;28056;51.112;0.984;2023-05-14T05:30:32;101275.33;;;9.10;77.91
42411;BME280;28056;51.112;0.984;2023-05-14T05:33:00;101275.83;;;8.55;79.24
42411;BME280;28056;51.112;0.984;2023-05-14T05:35:32;101279.86;;;9.94;77.22
42411;BME280;28056;51.112;0.984;2023-05-14T05:38:00;101272.72;;;8.53;81.35
42411;BME280;28056;51.112;0.984;2023-05-14T05:40:28;101277.34;;;8.66;81.94
42411;BME280;28056;51.112;0.984;2023-05-14T05:42:56;101273.49;;;9.03;81.19
42411;BME280;28056;51.112;0.984;2023-05-14T05:45:23;101272.33;;;9.21;79.94
42411;BME280;28056;51.112;0.984;2023-05-14T05:47:51;101274.43;;;8.60;80.99
42411;BME280;28056;51.112;0.984;2023-05-14T05:50:18;101275.01;;;8.01;84.20
42411;BME280;28056;51.112;0.984;2023-05-14T05:52:46;101279.63;;;8.29;83.00
42411;BME280;28056;51.112;0.984;2023-05-14T05:55:13;101277.93;;;9.02;81.34
42411;BME280;28056;51.112;0.984;2023-05-14T05:57:41;101276.29;;;8.20;83.49
42411;BME280;28056;51.112;0.984;2023-05-14T06:00:09;101277.80;;;8.99;81.54
42411;BME280;28056;51.112;0.984;2023-05-14T06:02:37;101273.96;;;9.04;82.41
42411;BME280;28056;51.112;0.984;2023-05-14T06:05:05;101272.27;;;8.18;82.57
42411;BME280;28056;51.112;0.984;2023-05-14T06:07:33;101276.73;;;8.10;84.20
42411;BME280;28056;51.112;0.984;2023-05-14T06:10:02;101278.71;;;9.07;82.50
42411;BME280;28056;51.112;0.984;2023-05-14T06:12:30;101281.28;;;10.01;78.67
42411;BME280;28056;51.112;0.984;2023-05-14T06:14:58;101278.71;;;9.05;78.35
42411;BME280;28056;51.112;0.984;2023-05-14T06:17:26;101278.07;;;9.04;77.41
42411;BME280;28056;51.112;0.984;2023-05-14T06:19:53;101278.43;;;8.71;78.72
42411;BME280;28056;51.112;0.984;2023-05-14T06:22:21;101277.73;;;8.23;80.91
42411;BME280;28056;51.112;0.984;2023-05-14T06:24:48;101274.92;;;8.19;83.31
42411;BME280;28056;51.112;0.984;2023-05-14T06:27:15;101276.27;;;8.01;84.76
42411;BME280;28056;51.112;0.984;2023-05-14T06:29:43;101277.38;;;7.93;84.29
42411;BME280;28056;51.112;0.984;2023-05-14T06:32:10;101277.95;;;7.99;84.62
42411;BME280;28056;51.112;0.984;2023-05-14T06:34:38;101276.65;;;8.30;83.49
42411;BME280;28056;51.112;0.984;2023-05-14T06:37:05;101281.26;;;8.16;84.59
42411;BME280;28056;51.112;0.984;2023-05-14T06:39:32;101282.33;;;8.66;82.00
42411;BME280;28056;51.112;0.984;2023-05-14T06:41:59;101283.72;;;9.45;80.77
42411;BME280;28056;51.112;0.984;2023-05-14T06:44:27;101278.66;;;8.62;82.02
42411;BME280;28056;51.112;0.984;2023-05-14T06:46:55;101280.03;;;9.12;80.28
42411;BME280;28056;51.112;0.984;2023-05-14T06:49:23;101281.84;;;8.61;80.16
42411;BME280;28056;51.112;0.984;2023-05-14T06:51:49;101283.64;;;9.30;79.06
42411;BME280;28056;51.112;0.984;2023-05-14T06:54:17;101286.07;;;9.42;79.83
42411;BME280;28056;51.112;0.984;2023-05-14T06:56:44;101279.59;;;9.90;77.12
42411;BME280;28056;51.112;0.984;2023-05-14T06:59:12;101275.06;;;9.75;75.77
42411;BME280;28056;51.112;0.984;2023-05-14T07:01:39;101272.48;;;10.47;76.36
42411;BME280;28056;51.112;0.984;2023-05-14T07:04:07;101269.86;;;10.99;74.89
42411;BME280;28056;51.112;0.984;2023-05-14T07:06:34;101271.86;;;11.47;72.29
42411;BME280;28056;51.112;0.984;2023-05-14T07:09:02;101270.61;;;11.34;72.36
42411;BME280;28056;51.112;0.984;2023-05-14T07:11:29;101271.84;;;11.71;69.33
42411;BME280;28056;51.112;0.984;2023-05-14T07:13:57;101269.21;;;12.43;67.18
42411;BME280;28056;51.112;0.984;2023-05-14T07:16:25;101265.04;;;12.50;67.54
42411;BME280;28056;51.112;0.984;2023-05-14T07:18:52;101264.03;;;11.91;67.67
42411;BME280;28056;51.112;0.984;2023-05-14T07:21:20;101259.63;;;12.82;64.90
42411;BME280;28056;51.112;0.984;2023-05-14T07:23:47;101263.81;;;11.27;66.57
42411;BME280;28056;51.112;0.984;2023-05-14T07:26:15;101264.93;;;10.51;69.48
42411;BME280;28056;51.112;0.984;2023-05-14T07:28:43;101258.71;;;11.00;68.66
42411;BME280;28056;51.112;0.984;2023-05-14T07:31:10;101255.52;;;12.29;67.17
42411;BME280;28056;51.112;0.984;2023-05-14T07:33:38;101248.92;;;12.65;67.07
42411;BME280;28056;51.112;0.984;2023-05-14T07:36:06;101244.78;;;12.88;63.83
42411;BME280;28056;51.112;0.984;2023-05-14T07:38:33;101244.95;;;12.06;65.64
42411;BME280;28056;51.112;0.984;2023-05-14T07:41:00;101244.71;;;13.06;66.41
42411;BME280;28056;51.112;0.984;2023-05-14T07:43:28;101242.46;;;12.91;66.66
42411;BME280;28056;51.112;0.984;2023-05-14T07:45:55;101245.55;;;13.39;64.65
42411;BME280;28056;51.112;0.984;2023-05-14T07:48:22;101242.47;;;11.97;63.79
42411;BME280;28056;51.112;0.984;2023-05-14T07:50:50;101239.61;;;13.06;66.42
42411;BME280;28056;51.112;0.984;2023-05-14T07:53:17;101245.60;;;13.25;66.44
42411;BME280;28056;51.112;0.984;2023-05-14T07:55:45;101246.73;;;14.08;63.04
42411;BME280;28056;51.112;0.984;2023-05-14T07:58:12;101248.95;;;13.90;62.98
42411;BME280;28056;51.112;0.984;2023-05-14T08:00:39;101245.75;;;13.24;63.50
42411;BME280;28056;51.112;0.984;2023-05-14T08:03:06;101244.86;;;13.50;63.39
42411;BME280;28056;51.112;0.984;2023-05-14T08:05:33;101246.70;;;14.51;62.77
42411;BME280;28056;51.112;0.984;2023-05-14T08:08:00;101246.72;;;14.45;61.02
42411;BME280;28056;51.112;0.984;2023-05-14T08:10:27;101240.78;;;14.81;61.42
42411;BME280;28056;51.112;0.984;2023-05-14T08:12:54;101242.51;;;14.11;60.30
42411;BME280;28056;51.112;0.984;2023-05-14T08:15:22;101236.01;;;15.37;58.48
42411;BME280;28056;51.112;0.984;2023-05-14T08:17:49;101236.87;;;15.25;58.56
42411;BME280;28056;51.112;0.984;2023-05-14T08:20:17;101236.46;;;15.16;60.82
42411;BME280;28056;51.112;0.984;2023-05-14T08:22:44;101229.81;;;15.08;56.61
42411;BME280;28056;51.112;0.984;2023-05-14T08:25:11;101234.48;;;15.98;57.21
42411;BME280;28056;51.112;0.984;2023-05-14T08:27:38;101231.91;;;16.17;54.65
42411;BME280;28056;51.112;0.984;2023-05-14T08:30:07;101228.10;;;15.11;58.97
42411;BME280;28056;51.112;0.984;2023-05-14T08:32:34;101225.52;;;15.81;56.40
42411;BME280;28056;51.112;0.984;2023-05-14T08:35:02;101222.76;;;15.81;55.47
42411;BME280;28056;51.112;0.984;2023-05-14T08:37:29;101220.16;;;15.24;56.08
42411;BME280;28056;51.112;0.984;2023-05-14T08:39:56;101218.14;;;16.36;55.43
42411;BME280;28056;51.112;0.984;2023-05-14T08:42:24;101216.61;;;16.82;52.18
42411;BME280;28056;51.112;0.984;2023-05-14T08:44:56;101211.72;;;16.12;53.74
42411;BME280;28056;51.112;0.984;2023-05-14T08:47:25;101211.14;;;16.00;56.54
42411;BME280;28056;51.112;0.984;2023-05-14T08:50:00;101210.57;;;15.96;54.04
42411;BME280;28056;51.112;0.984;2023-05-14T08:52:29;101214.15;;;14.80;57.14
42411;BME280;28056;51.112;0.984;2023-05-14T08:55:04;101214.20;;;15.16;54.94
42411;BME280;28056;51.112;0.984;2023-05-14T08:57:32;101217.67;;;15.59;53.00
42411;BME280;28056;51.112;0.984;2023-05-14T09:00:00;101216.51;;;14.60;54.34
42411;BME280;28056;51.112;0.984;2023-05-14T09:02:29;101211.85;;;15.26;53.35
42411;BME280;28056;51.112;0.984;2023-05-14T09:04:57;101213.72;;;15.83;55.92
42411;BME280;28056;51.112;0.984;2023-05-14T09:07:25;101214.63;;;16.48;57.71
42411;BME280;28056;51.112;0.984;2023-05-14T09:09:54;101212.15;;;15.76;54.01
42411;BME280;28056;51.112;0.984;2023-05-14T09:12:21;101209.22;;;15.51;56.57
42411;BME280;28056;51.112;0.984;2023-05-14T09:14:49;101211.90;;;16.52;57.07
42411;BME280;28056;51.112;0.984;2023-05-14T09:17:17;101211.57;;;16.05;54.68
42411;BME280;28056;51.112;0.984;2023-05-14T09:19:46;101211.01;;;15.29;53.81
42411;BME280;28056;51.112;0.984;2023-05-14T09:22:14;101205.81;;;15.25;54.71
42411;BME280;28056;51.112;0.984;2023-05-14T09:24:42;101200.76;;;14.33;54.95
42411;BME280;28056;51.112;0.984;2023-05-14T09:27:17;101199.46;;;16.21;54.51
42411;BME280;28056;51.112;0.984;2023-05-14T09:29:46;101198.07;;;15.38;54.12
42411;BME280;28056;51.112;0.984;2023-05-14T09:32:13;101200.15;;;15.25;58.60
42411;BME280;28056;51.112;0.984;2023-05-14T09:34:41;101205.07;;;16.84;57.12
42411;BME280;28056;51.112;0.984;2023-05-14T09:37:09;101209.26;;;16.69;53.29
42411;BME280;28056;51.112;0.984;2023-05-14T09:39:37;101208.71;;;16.81;55.82
42411;BME280;28056;51.112;0.984;2023-05-14T09:42:05;101209.39;;;16.49;52.86
42411;BME280;28056;51.112;0.984;2023-05-14T09:44:32;101208.04;;;17.89;52.82
42411;BME280;28056;51.112;0.984;2023-05-14T09:47:00;101202.11;;;18.27;46.13
42411;BME280;28056;51.112;0.984;2023-05-14T09:49:27;101197.16;;;18.92;47.31
42411;BME280;28056;51.112;0.984;2023-05-14T09:51:54;101201.98;;;19.37;50.20
42411;BME280;28056;51.112;0.984;2023-05-14T09:54:23;101205.72;;;18.30;45.01
42411;BME280;28056;51.112;0.984;2023-05-14T09:56:50;101209.44;;;17.18;50.63
42411;BME280;28056;51.112;0.984;2023-05-14T09:59:18;101210.24;;;16.42;51.75
42411;BME280;28056;51.112;0.984;2023-05-14T10:01:46;101213.73;;;16.44;52.73
42411;BME280;28056;51.112;0.984;2023-05-14T10:04:15;101210.84;;;15.76;52.57
42411;BME280;28056;51.112;0.984;2023-05-14T10:06:47;101216.43;;;15.64;52.02
42411;BME280;28056;51.112;0.984;2023-05-14T10:09:18;101213.21;;;17.41;54.56
42411;BME280;28056;51.112;0.984;2023-05-14T10:11:50;101207.41;;;16.07;53.63
42411;BME280;28056;51.112;0.984;2023-05-14T10:14:25;101207.43;;;16.97;58.20
42411;BME280;28056;51.112;0.984;2023-05-14T10:16:55;101206.01;;;17.13;51.00
42411;BME280;28056;51.112;0.984;2023-05-14T10:19:25;101206.24;;;19.17;45.90
42411;BME280;28056;51.112;0.984;2023-05-14T10:21:56;101206.51;;;19.24;50.73
42411;BME280;28056;51.112;0.984;2023-05-14T10:24:26;101203.11;;;18.79;45.86
42411;BME280;28056;51.112;0.984;2023-05-14T10:26:54;101195.75;;;20.21;41.60
42411;BME280;28056;51.112;0.984;2023-05-14T10:29:31;101196.85;;;18.97;48.14
42411;BME280;28056;51.112;0.984;2023-05-14T10:32:03;101185.14;;;19.90;48.02
42411;BME280;28056;51.112;0.984;2023-05-14T10:34:34;101181.04;;;20.01;44.26
42411;BME280;28056;51.112;0.984;2023-05-14T10:37:02;101178.59;;;20.85;48.01
42411;BME280;28056;51.112;0.984;2023-05-14T10:39:48;101180.26;;;18.84;45.19
42411;BME280;28056;51.112;0.984;2023-05-14T10:42:17;101185.75;;;17.90;46.06
42411;BME280;28056;51.112;0.984;2023-05-14T10:44:51;101186.40;;;17.08;48.94
42411;BME280;28056;51.112;0.984;2023-05-14T10:47:19;101185.78;;;18.30;52.26
42411;BME280;28056;51.112;0.984;2023-05-14T10:49:47;101187.55;;;18.37;55.65
42411;BME280;28056;51.112;0.984;2023-05-14T10:52:16;101183.43;;;19.09;44.03
42411;BME280;28056;51.112;0.984;2023-05-14T10:54:49;101183.61;;;18.81;45.71
42411;BME280;28056;51.112;0.984;2023-05-14T10:57:17;101175.21;;;17.64;46.02
42411;BME280;28056;51.112;0.984;2023-05-14T10:59:46;101174.44;;;18.43;48.13
42411;BME280;28056;51.112;0.984;2023-05-14T11:02:23;101169.65;;;18.10;46.53
42411;BME280;28056;51.112;0.984;2023-05-14T11:04:55;101170.28;;;18.46;50.57
42411;BME280;28056;51.112;0.984;2023-05-14T11:07:26;101170.14;;;18.74;49.72
42411;BME280;28056;51.112;0.984;2023-05-14T11:10:00;101161.42;;;18.98;56.13
42411;BME280;28056;51.112;0.984;2023-05-14T11:12:29;101157.88;;;18.50;49.74
42411;BME280;28056;51.112;0.984;2023-05-14T11:14:57;101157.94;;;18.77;49.34
42411;BME280;28056;51.112;0.984;2023-05-14T11:17:26;101157.86;;;18.53;52.77
42411;BME280;28056;51.112;0.984;2023-05-14T11:19:54;101154.09;;;17.70;52.89
42411;BME280;28056;51.112;0.984;2023-05-14T11:22:23;101153.22;;;18.22;53.17
42411;BME280;28056;51.112;0.984;2023-05-14T11:24:51;101144.11;;;19.32;52.13
42411;BME280;28056;51.112;0.984;2023-05-14T11:27:20;101144.99;;;19.06;54.64
42411;BME280;28056;51.112;0.984;2023-05-14T11:29:48;101145.69;;;19.36;52.48
42411;BME280;28056;51.112;0.984;2023-05-14T11:32:16;101144.94;;;19.25;55.05
42411;BME280;28056;51.112;0.984;2023-05-14T11:34:45;101141.73;;;20.37;53.54
42411;BME280;28056;51.112;0.984;2023-05-14T11:37:13;101136.41;;;19.82;50.83
42411;BME280;28056;51.112;0.984;2023-05-14T11:39:47;101137.81;;;20.72;45.20
42411;BME280;28056;51.112;0.984;2023-05-14T11:42:15;101138.94;;;20.56;46.04
42411;BME280;28056;51.112;0.984;2023-05-14T11:44:42;101139.33;;;20.63;52.29
42411;BME280;28056;51.112;0.984;2023-05-14T11:47:10;101136.57;;;20.69;49.57
42411;BME280;28056;51.112;0.984;2023-05-14T11:49:38;101132.60;;;20.62;45.93
42411;BME280;28056;51.112;0.984;2023-05-14T11:52:07;101129.34;;;20.32;50.80
42411;BME280;28056;51.112;0.984;2023-05-14T11:54:35;101129.72;;;19.94;48.05
42411;BME280;28056;51.112;0.984;2023-05-14T11:57:07;101125.49;;;20.58;49.57
42411;BME280;28056;51.112;0.984;2023-05-14T11:59:34;101124.87;;;20.96;44.53
42411;BME280;28056;51.112;0.984;2023-05-14T12:02:02;101118.45;;;21.25;43.58
42411;BME280;28056;51.112;0.984;2023-05-14T12:04:31;101119.05;;;20.20;48.23
42411;BME280;28056;51.112;0.984;2023-05-14T12:06:59;101116.06;;;19.88;45.46
42411;BME280;28056;51.112;0.984;2023-05-14T12:09:36;101108.90;;;20.74;52.14
42411;BME280;28056;51.112;0.984;2023-05-14T12:12:08;101115.13;;;21.07;49.65
42411;BME280;28056;51.112;0.984;2023-05-14T12:14:37;101114.75;;;19.46;49.84
42411;BME280;28056;51.112;0.984;2023-05-14T12:17:11;101116.31;;;20.50;48.81
42411;BME280;28056;51.112;0.984;2023-05-14T12:19:39;101110.78;;;20.20;47.72
42411;BME280;28056;51.112;0.984;2023-05-14T12:22:08;101111.07;;;20.04;48.30
42411;BME280;28056;51.112;0.984;2023-05-14T12:24:36;101108.39;;;20.26;47.91
42411;BME280;28056;51.112;0.984;2023-05-14T12:27:04;101102.76;;;21.36;53.14
42411;BME280;28056;51.112;0.984;2023-05-14T12:29:35;101099.80;;;21.95;47.40
42411;BME280;28056;51.112;0.984;2023-05-14T12:32:05;101095.23;;;21.88;43.11
42411;BME280;28056;51.112;0.984;2023-05-14T12:34:33;101091.13;;;21.24;44.08
42411;BME280;28056;51.112;0.984;2023-05-14T12:37:00;101090.93;;;21.40;43.11
42411;BME280;28056;51.112;0.984;2023-05-14T12:39:31;101084.49;;;21.81;46.62
42411;BME280;28056;51.112;0.984;2023-05-14T12:41:59;101084.70;;;20.73;42.22
42411;BME280;28056;51.112;0.984;2023-05-14T12:44:27;101083.22;;;21.04;46.49
42411;BME280;28056;51.112;0.984;2023-05-14T12:46:55;101083.42;;;19.77;44.38
42411;BME280;28056;51.112;0.984;2023-05-14T12:49:22;101082.36;;;20.18;47.74
42411;BME280;28056;51.112;0.984;2023-05-14T12:51:50;101071.86;;;20.76;47.60
42411;BME280;28056;51.112;0.984;2023-05-14T12:54:16;101070.52;;;21.46;48.66
42411;BME280;28056;51.112;0.984;2023-05-14T12:56:44;101067.96;;;21.10;50.48
42411;BME280;28056;51.112;0.984;2023-05-14T12:59:12;101067.63;;;21.37;43.65